sensor_id;sensor_type;location;lat;lon;timestamp;P1;durP1;ratioP1;P2;durP2;ratioP2
58643;SDS011;44411;49.994;8.660;2022-12-19T00:00:41;53.10;;;24.85;;
58643;SDS011;44411;49.994;8.660;2022-12-19T00:03:07;54.55;;;25.35;;
58643;SDS011;44411;49.994;8.660;2022-12-19T00:05:35;48.28;;;26.60;;
58643;SDS011;44411;49.994;8.660;2022-12-19T00:08:01;52.65;;;26.00;;
58643;SDS011;44411;49.994;8.660;2022-12-19T00:10:27;48.65;;;25.38;;
58643;SDS011;44411;49.994;8.660;2022-12-19T00:12:52;47.55;;;26.17;;
58643;SDS011;44411;49.994;8.660;2022-12-19T00:15:17;50.60;;;26.30;;
58643;SDS011;44411;49.994;8.660;2022-12-19T00:17:43;49.63;;;26.10;;
58643;SDS011;44411;49.994;8.660;2022-12-19T00:20:08;46.75;;;24.88;;
58643;SDS011;44411;49.994;8.660;2022-12-19T00:22:34;50.45;;;25.58;;
58643;SDS011;44411;49.994;8.660;2022-12-19T00:24:59;49.05;;;25.10;;
58643;SDS011;44411;49.994;8.660;2022-12-19T00:27:25;49.35;;;25.70;;
58643;SDS011;44411;49.994;8.660;2022-12-19T00:29:50;51.78;;;25.27;;
58643;SDS011;44411;49.994;8.660;2022-12-19T00:32:15;50.38;;;26.08;;
58643;SDS011;44411;49.994;8.660;2022-12-19T00:34:43;47.30;;;25.08;;
58643;SDS011;44411;49.994;8.660;2022-12-19T00:37:09;52.92;;;25.63;;
58643;SDS011;44411;49.994;8.660;2022-12-19T00:39:35;49.83;;;24.90;;
58643;SDS011;44411;49.994;8.660;2022-12-19T00:42:01;47.42;;;24.63;;
58643;SDS011;44411;49.994;8.660;2022-12-19T00:44:26;53.53;;;25.92;;
58643;SDS011;44411;49.994;8.660;2022-12-19T00:46:51;53.85;;;26.30;;
58643;SDS011;44411;49.994;8.660;2022-12-19T00:49:17;50.25;;;23.85;;
58643;SDS011;44411;49.994;8.660;2022-12-19T00:51:42;49.72;;;24.08;;
58643;SDS011;44411;49.994;8.660;2022-12-19T00:54:08;50.17;;;24.98;;
58643;SDS011;44411;49.994;8.660;2022-12-19T00:56:33;45.65;;;25.42;;
58643;SDS011;44411;49.994;8.660;2022-12-19T00:58:59;53.55;;;26.83;;
58643;SDS011;44411;49.994;8.660;2022-12-19T01:04:00;50.38;;;27.17;;
58643;SDS011;44411;49.994;8.660;2022-12-19T01:06:26;44.42;;;23.88;;
58643;SDS011;44411;49.994;8.660;2022-12-19T01:08:52;49.20;;;25.95;;
58643;SDS011;44411;49.994;8.660;2022-12-19T01:11:18;47.55;;;24.63;;
58643;SDS011;44411;49.994;8.660;2022-12-19T01:14:04;48.88;;;26.75;;
58643;SDS011;44411;49.994;8.660;2022-12-19T01:16:29;51.33;;;25.38;;
58643;SDS011;44411;49.994;8.660;2022-12-19T01:18:55;51.65;;;24.67;;
58643;SDS011;44411;49.994;8.660;2022-12-19T01:21:20;49.45;;;25.52;;
58643;SDS011;44411;49.994;8.660;2022-12-19T01:23:45;50.38;;;25.23;;
58643;SDS011;44411;49.994;8.660;2022-12-19T01:26:10;51.60;;;25.50;;
58643;SDS011;44411;49.994;8.660;2022-12-19T01:28:38;50.00;;;24.50;;
58643;SDS011;44411;49.994;8.660;2022-12-19T01:31:04;48.53;;;25.27;;
58643;SDS011;44411;49.994;8.660;2022-12-19T01:33:30;47.38;;;25.83;;
58643;SDS011;44411;49.994;8.660;2022-12-19T01:35:55;54.80;;;27.60;;
58643;SDS011;44411;49.994;8.660;2022-12-19T01:38:20;46.25;;;24.33;;
58643;SDS011;44411;49.994;8.660;2022-12-19T01:40:52;51.20;;;28.00;;
58643;SDS011;44411;49.994;8.660;2022-12-19T01:43:22;50.53;;;25.88;;
58643;SDS011;44411;49.994;8.660;2022-12-19T01:45:48;50.00;;;26.10;;
58643;SDS011;44411;49.994;8.660;2022-12-19T01:48:30;53.38;;;25.75;;
58643;SDS011;44411;49.994;8.660;2022-12-19T01:51:06;48.92;;;25.48;;
58643;SDS011;44411;49.994;8.660;2022-12-19T01:53:39;50.80;;;27.05;;
58643;SDS011;44411;49.994;8.660;2022-12-19T01:58:35;53.78;;;28.10;;
58643;SDS011;44411;49.994;8.660;2022-12-19T02:01:03;56.90;;;27.50;;
58643;SDS011;44411;49.994;8.660;2022-12-19T02:03:29;49.38;;;28.27;;
58643;SDS011;44411;49.994;8.660;2022-12-19T02:05:57;55.25;;;27.73;;
58643;SDS011;44411;49.994;8.660;2022-12-19T02:08:24;51.75;;;27.83;;
58643;SDS011;44411;49.994;8.660;2022-12-19T02:10:51;50.03;;;26.35;;
58643;SDS011;44411;49.994;8.660;2022-12-19T02:13:16;55.65;;;27.45;;
58643;SDS011;44411;49.994;8.660;2022-12-19T02:30:04;54.53;;;28.30;;
58643;SDS011;44411;49.994;8.660;2022-12-19T02:35:11;56.95;;;28.40;;
58643;SDS011;44411;49.994;8.660;2022-12-19T02:37:47;51.88;;;27.30;;
58643;SDS011;44411;49.994;8.660;2022-12-19T02:40:20;57.78;;;28.30;;
58643;SDS011;44411;49.994;8.660;2022-12-19T02:42:52;54.30;;;27.23;;
58643;SDS011;44411;49.994;8.660;2022-12-19T02:45:21;49.05;;;27.27;;
58643;SDS011;44411;49.994;8.660;2022-12-19T02:47:50;55.53;;;27.38;;
58643;SDS011;44411;49.994;8.660;2022-12-19T02:50:17;57.25;;;27.40;;
58643;SDS011;44411;49.994;8.660;2022-12-19T02:52:43;52.60;;;27.73;;
58643;SDS011;44411;49.994;8.660;2022-12-19T02:55:12;57.45;;;28.65;;
58643;SDS011;44411;49.994;8.660;2022-12-19T02:57:52;51.05;;;27.33;;
58643;SDS011;44411;49.994;8.660;2022-12-19T03:00:21;52.75;;;27.83;;
58643;SDS011;44411;49.994;8.660;2022-12-19T03:03:09;58.60;;;28.27;;
58643;SDS011;44411;49.994;8.660;2022-12-19T03:11:52;53.97;;;27.65;;
58643;SDS011;44411;49.994;8.660;2022-12-19T03:14:29;59.78;;;30.33;;
58643;SDS011;44411;49.994;8.660;2022-12-19T03:16:57;58.40;;;29.42;;
58643;SDS011;44411;49.994;8.660;2022-12-19T03:19:27;57.70;;;28.85;;
58643;SDS011;44411;49.994;8.660;2022-12-19T03:21:52;56.05;;;28.40;;
58643;SDS011;44411;49.994;8.660;2022-12-19T03:24:17;53.00;;;27.70;;
58643;SDS011;44411;49.994;8.660;2022-12-19T03:26:45;59.40;;;28.23;;
58643;SDS011;44411;49.994;8.660;2022-12-19T03:29:15;55.38;;;28.67;;
58643;SDS011;44411;49.994;8.660;2022-12-19T03:31:46;58.67;;;28.67;;
58643;SDS011;44411;49.994;8.660;2022-12-19T03:34:14;56.90;;;27.83;;
58643;SDS011;44411;49.994;8.660;2022-12-19T03:36:45;54.90;;;27.48;;
58643;SDS011;44411;49.994;8.660;2022-12-19T03:39:16;55.80;;;29.02;;
58643;SDS011;44411;49.994;8.660;2022-12-19T03:41:44;58.80;;;30.00;;
58643;SDS011;44411;49.994;8.660;2022-12-19T03:44:31;54.38;;;27.77;;
58643;SDS011;44411;49.994;8.660;2022-12-19T03:47:04;57.13;;;29.17;;
58643;SDS011;44411;49.994;8.660;2022-12-19T03:49:36;57.97;;;27.88;;
58643;SDS011;44411;49.994;8.660;2022-12-19T03:54:38;59.25;;;29.65;;
58643;SDS011;44411;49.994;8.660;2022-12-19T03:59:54;59.30;;;28.88;;
58643;SDS011;44411;49.994;8.660;2022-12-19T04:02:25;59.05;;;28.90;;
58643;SDS011;44411;49.994;8.660;2022-12-19T04:04:53;58.25;;;30.20;;
58643;SDS011;44411;49.994;8.660;2022-12-19T04:07:22;57.22;;;28.65;;
58643;SDS011;44411;49.994;8.660;2022-12-19T04:09:48;56.83;;;27.70;;
58643;SDS011;44411;49.994;8.660;2022-12-19T04:12:17;52.60;;;28.17;;
58643;SDS011;44411;49.994;8.660;2022-12-19T04:14:46;58.65;;;30.33;;
58643;SDS011;44411;49.994;8.660;2022-12-19T04:20:06;64.82;;;30.10;;
58643;SDS011;44411;49.994;8.660;2022-12-19T04:22:53;56.65;;;29.85;;
58643;SDS011;44411;49.994;8.660;2022-12-19T04:25:21;59.38;;;29.17;;
58643;SDS011;44411;49.994;8.660;2022-12-19T04:27:53;59.58;;;30.55;;
58643;SDS011;44411;49.994;8.660;2022-12-19T04:30:22;56.50;;;28.75;;
58643;SDS011;44411;49.994;8.660;2022-12-19T04:32:48;61.85;;;31.15;;
58643;SDS011;44411;49.994;8.660;2022-12-19T04:35:14;54.40;;;27.52;;
58643;SDS011;44411;49.994;8.660;2022-12-19T04:37:40;55.92;;;28.75;;
58643;SDS011;44411;49.994;8.660;2022-12-19T04:40:06;57.90;;;31.00;;
58643;SDS011;44411;49.994;8.660;2022-12-19T04:42:32;59.70;;;28.70;;
58643;SDS011;44411;49.994;8.660;2022-12-19T04:44:58;53.92;;;28.55;;
58643;SDS011;44411;49.994;8.660;2022-12-19T04:47:23;56.88;;;29.25;;
58643;SDS011;44411;49.994;8.660;2022-12-19T04:49:48;51.47;;;25.92;;
58643;SDS011;44411;49.994;8.660;2022-12-19T04:52:14;59.75;;;28.13;;
58643;SDS011;44411;49.994;8.660;2022-12-19T04:54:39;54.25;;;27.95;;
58643;SDS011;44411;49.994;8.660;2022-12-19T04:57:04;56.15;;;29.13;;
58643;SDS011;44411;49.994;8.660;2022-12-19T04:59:30;64.97;;;31.30;;
58643;SDS011;44411;49.994;8.660;2022-12-19T05:01:55;57.45;;;28.38;;
58643;SDS011;44411;49.994;8.660;2022-12-19T05:04:21;58.40;;;29.50;;
58643;SDS011;44411;49.994;8.660;2022-12-19T05:06:46;58.22;;;30.17;;
58643;SDS011;44411;49.994;8.660;2022-12-19T05:09:11;58.75;;;29.38;;
58643;SDS011;44411;49.994;8.660;2022-12-19T05:11:36;60.15;;;28.90;;
58643;SDS011;44411;49.994;8.660;2022-12-19T05:14:02;59.20;;;29.00;;
58643;SDS011;44411;49.994;8.660;2022-12-19T05:16:27;63.70;;;29.67;;
58643;SDS011;44411;49.994;8.660;2022-12-19T05:18:53;61.00;;;29.63;;
58643;SDS011;44411;49.994;8.660;2022-12-19T05:21:19;58.92;;;30.42;;
58643;SDS011;44411;49.994;8.660;2022-12-19T05:23:45;60.50;;;31.10;;
58643;SDS011;44411;49.994;8.660;2022-12-19T05:26:11;60.13;;;29.83;;
58643;SDS011;44411;49.994;8.660;2022-12-19T05:28:36;58.92;;;30.40;;
58643;SDS011;44411;49.994;8.660;2022-12-19T05:31:03;58.83;;;31.30;;
58643;SDS011;44411;49.994;8.660;2022-12-19T05:33:30;62.70;;;30.65;;
58643;SDS011;44411;49.994;8.660;2022-12-19T05:35:55;64.97;;;31.70;;
58643;SDS011;44411;49.994;8.660;2022-12-19T05:38:21;68.35;;;33.45;;
58643;SDS011;44411;49.994;8.660;2022-12-19T05:40:46;58.80;;;29.67;;
58643;SDS011;44411;49.994;8.660;2022-12-19T05:43:11;56.13;;;30.38;;
58643;SDS011;44411;49.994;8.660;2022-12-19T05:45:37;63.20;;;30.48;;
58643;SDS011;44411;49.994;8.660;2022-12-19T05:48:03;62.90;;;29.73;;
58643;SDS011;44411;49.994;8.660;2022-12-19T05:50:29;61.95;;;31.13;;
58643;SDS011;44411;49.994;8.660;2022-12-19T05:52:54;59.83;;;30.27;;
58643;SDS011;44411;49.994;8.660;2022-12-19T05:55:20;63.33;;;31.90;;
58643;SDS011;44411;49.994;8.660;2022-12-19T05:57:45;61.00;;;29.80;;
58643;SDS011;44411;49.994;8.660;2022-12-19T06:00:10;65.80;;;31.75;;
58643;SDS011;44411;49.994;8.660;2022-12-19T06:02:36;59.92;;;29.00;;
58643;SDS011;44411;49.994;8.660;2022-12-19T06:05:02;62.53;;;31.98;;
58643;SDS011;44411;49.994;8.660;2022-12-19T06:07:27;61.70;;;31.60;;
58643;SDS011;44411;49.994;8.660;2022-12-19T06:09:54;58.30;;;29.92;;
58643;SDS011;44411;49.994;8.660;2022-12-19T06:12:19;55.28;;;30.50;;
58643;SDS011;44411;49.994;8.660;2022-12-19T06:14:44;59.35;;;30.65;;
58643;SDS011;44411;49.994;8.660;2022-12-19T06:17:10;57.20;;;30.45;;
58643;SDS011;44411;49.994;8.660;2022-12-19T06:19:35;55.72;;;30.88;;
58643;SDS011;44411;49.994;8.660;2022-12-19T06:22:00;63.53;;;31.15;;
58643;SDS011;44411;49.994;8.660;2022-12-19T06:24:26;63.53;;;31.17;;
58643;SDS011;44411;49.994;8.660;2022-12-19T06:26:51;68.00;;;32.97;;
58643;SDS011;44411;49.994;8.660;2022-12-19T06:29:17;62.88;;;30.75;;
58643;SDS011;44411;49.994;8.660;2022-12-19T06:31:42;58.85;;;29.52;;
58643;SDS011;44411;49.994;8.660;2022-12-19T06:34:09;64.82;;;31.60;;
58643;SDS011;44411;49.994;8.660;2022-12-19T06:36:35;69.05;;;32.55;;
58643;SDS011;44411;49.994;8.660;2022-12-19T06:39:01;64.40;;;32.13;;
58643;SDS011;44411;49.994;8.660;2022-12-19T06:41:27;67.25;;;32.75;;
58643;SDS011;44411;49.994;8.660;2022-12-19T06:44:11;56.83;;;28.50;;
58643;SDS011;44411;49.994;8.660;2022-12-19T06:46:39;61.45;;;31.35;;
58643;SDS011;44411;49.994;8.660;2022-12-19T06:49:05;59.92;;;31.05;;
58643;SDS011;44411;49.994;8.660;2022-12-19T06:51:31;64.72;;;32.90;;
58643;SDS011;44411;49.994;8.660;2022-12-19T06:53:57;61.75;;;31.33;;
58643;SDS011;44411;49.994;8.660;2022-12-19T06:56:22;61.15;;;32.30;;
58643;SDS011;44411;49.994;8.660;2022-12-19T06:58:48;62.20;;;30.13;;
58643;SDS011;44411;49.994;8.660;2022-12-19T07:01:23;64.60;;;30.88;;
58643;SDS011;44411;49.994;8.660;2022-12-19T07:03:51;60.20;;;30.30;;
58643;SDS011;44411;49.994;8.660;2022-12-19T07:06:18;62.20;;;32.95;;
58643;SDS011;44411;49.994;8.660;2022-12-19T07:08:43;61.03;;;30.75;;
58643;SDS011;44411;49.994;8.660;2022-12-19T07:11:08;60.67;;;32.03;;
58643;SDS011;44411;49.994;8.660;2022-12-19T07:13:33;62.67;;;32.17;;
58643;SDS011;44411;49.994;8.660;2022-12-19T07:16:00;73.32;;;33.13;;
58643;SDS011;44411;49.994;8.660;2022-12-19T07:18:28;59.17;;;31.05;;
58643;SDS011;44411;49.994;8.660;2022-12-19T07:20:55;67.07;;;34.65;;
58643;SDS011;44411;49.994;8.660;2022-12-19T07:23:21;63.72;;;32.15;;
58643;SDS011;44411;49.994;8.660;2022-12-19T07:25:47;62.08;;;32.60;;
58643;SDS011;44411;49.994;8.660;2022-12-19T07:28:12;64.63;;;32.25;;
58643;SDS011;44411;49.994;8.660;2022-12-19T07:30:39;62.90;;;32.45;;
58643;SDS011;44411;49.994;8.660;2022-12-19T07:33:04;60.75;;;31.20;;
58643;SDS011;44411;49.994;8.660;2022-12-19T07:35:29;57.60;;;30.27;;
58643;SDS011;44411;49.994;8.660;2022-12-19T07:37:59;67.93;;;35.25;;
58643;SDS011;44411;49.994;8.660;2022-12-19T07:40:26;59.47;;;30.70;;
58643;SDS011;44411;49.994;8.660;2022-12-19T07:42:51;63.10;;;31.98;;
58643;SDS011;44411;49.994;8.660;2022-12-19T07:45:16;57.55;;;29.10;;
58643;SDS011;44411;49.994;8.660;2022-12-19T07:47:42;65.78;;;31.38;;
58643;SDS011;44411;49.994;8.660;2022-12-19T07:50:07;65.55;;;32.83;;
58643;SDS011;44411;49.994;8.660;2022-12-19T07:52:32;60.45;;;31.17;;
58643;SDS011;44411;49.994;8.660;2022-12-19T07:54:58;67.85;;;34.00;;
58643;SDS011;44411;49.994;8.660;2022-12-19T07:57:23;62.40;;;32.67;;
58643;SDS011;44411;49.994;8.660;2022-12-19T07:59:48;70.25;;;33.28;;
58643;SDS011;44411;49.994;8.660;2022-12-19T08:02:14;65.53;;;30.70;;
58643;SDS011;44411;49.994;8.660;2022-12-19T08:04:39;61.65;;;30.80;;
58643;SDS011;44411;49.994;8.660;2022-12-19T08:07:04;64.65;;;33.53;;
58643;SDS011;44411;49.994;8.660;2022-12-19T08:09:30;65.82;;;31.98;;
58643;SDS011;44411;49.994;8.660;2022-12-19T08:11:57;71.10;;;33.40;;
58643;SDS011;44411;49.994;8.660;2022-12-19T08:14:22;68.00;;;33.22;;
58643;SDS011;44411;49.994;8.660;2022-12-19T08:16:48;61.88;;;32.72;;
58643;SDS011;44411;49.994;8.660;2022-12-19T08:19:13;80.10;;;36.58;;
58643;SDS011;44411;49.994;8.660;2022-12-19T08:21:38;76.45;;;37.75;;
58643;SDS011;44411;49.994;8.660;2022-12-19T08:24:04;77.43;;;36.78;;
58643;SDS011;44411;49.994;8.660;2022-12-19T08:26:29;66.57;;;35.45;;
58643;SDS011;44411;49.994;8.660;2022-12-19T08:28:55;70.90;;;35.10;;
58643;SDS011;44411;49.994;8.660;2022-12-19T08:31:23;70.85;;;34.53;;
58643;SDS011;44411;49.994;8.660;2022-12-19T08:33:53;71.78;;;36.53;;
58643;SDS011;44411;49.994;8.660;2022-12-19T08:36:20;71.88;;;33.78;;
58643;SDS011;44411;49.994;8.660;2022-12-19T08:38:46;67.55;;;31.40;;
58643;SDS011;44411;49.994;8.660;2022-12-19T08:41:13;58.42;;;32.80;;
58643;SDS011;44411;49.994;8.660;2022-12-19T08:43:39;69.68;;;33.53;;
58643;SDS011;44411;49.994;8.660;2022-12-19T08:46:05;71.07;;;34.25;;
58643;SDS011;44411;49.994;8.660;2022-12-19T08:48:32;65.45;;;34.15;;
58643;SDS011;44411;49.994;8.660;2022-12-19T08:50:59;72.00;;;35.83;;
58643;SDS011;44411;49.994;8.660;2022-12-19T08:53:29;77.13;;;33.65;;
58643;SDS011;44411;49.994;8.660;2022-12-19T08:55:56;72.13;;;35.25;;
58643;SDS011;44411;49.994;8.660;2022-12-19T08:58:23;70.47;;;35.10;;
58643;SDS011;44411;49.994;8.660;2022-12-19T09:00:49;77.68;;;38.25;;
58643;SDS011;44411;49.994;8.660;2022-12-19T09:03:16;83.38;;;37.35;;
58643;SDS011;44411;49.994;8.660;2022-12-19T09:05:42;77.95;;;37.33;;
58643;SDS011;44411;49.994;8.660;2022-12-19T09:08:07;74.07;;;35.45;;
58643;SDS011;44411;49.994;8.660;2022-12-19T09:10:34;79.93;;;38.05;;
58643;SDS011;44411;49.994;8.660;2022-12-19T09:13:01;73.85;;;34.75;;
58643;SDS011;44411;49.994;8.660;2022-12-19T09:15:26;74.35;;;36.80;;
58643;SDS011;44411;49.994;8.660;2022-12-19T09:17:52;75.40;;;36.60;;
58643;SDS011;44411;49.994;8.660;2022-12-19T09:20:17;74.00;;;38.00;;
58643;SDS011;44411;49.994;8.660;2022-12-19T09:22:42;82.28;;;37.25;;
58643;SDS011;44411;49.994;8.660;2022-12-19T09:25:08;76.97;;;37.03;;
58643;SDS011;44411;49.994;8.660;2022-12-19T09:27:34;67.28;;;35.03;;
58643;SDS011;44411;49.994;8.660;2022-12-19T09:30:00;72.65;;;36.38;;
58643;SDS011;44411;49.994;8.660;2022-12-19T09:32:26;78.20;;;36.85;;
58643;SDS011;44411;49.994;8.660;2022-12-19T09:34:51;71.43;;;33.63;;
58643;SDS011;44411;49.994;8.660;2022-12-19T09:37:17;72.60;;;35.67;;
58643;SDS011;44411;49.994;8.660;2022-12-19T09:39:43;72.85;;;34.95;;
58643;SDS011;44411;49.994;8.660;2022-12-19T09:44:59;70.45;;;35.00;;
58643;SDS011;44411;49.994;8.660;2022-12-19T09:47:28;78.43;;;37.58;;
58643;SDS011;44411;49.994;8.660;2022-12-19T09:49:56;77.53;;;35.42;;
58643;SDS011;44411;49.994;8.660;2022-12-19T10:00:19;84.03;;;36.45;;
58643;SDS011;44411;49.994;8.660;2022-12-19T10:08:16;66.30;;;32.30;;
58643;SDS011;44411;49.994;8.660;2022-12-19T10:10:53;77.18;;;36.70;;
58643;SDS011;44411;49.994;8.660;2022-12-19T10:16:34;73.38;;;35.38;;
58643;SDS011;44411;49.994;8.660;2022-12-19T10:19:09;69.22;;;33.53;;
58643;SDS011;44411;49.994;8.660;2022-12-19T10:21:45;72.03;;;34.28;;
58643;SDS011;44411;49.994;8.660;2022-12-19T10:24:24;79.13;;;39.25;;
58643;SDS011;44411;49.994;8.660;2022-12-19T10:26:53;75.95;;;36.58;;
58643;SDS011;44411;49.994;8.660;2022-12-19T10:29:32;74.13;;;36.85;;
58643;SDS011;44411;49.994;8.660;2022-12-19T10:35:11;78.38;;;35.92;;
58643;SDS011;44411;49.994;8.660;2022-12-19T10:40:27;81.57;;;37.53;;
58643;SDS011;44411;49.994;8.660;2022-12-19T10:45:32;84.22;;;39.92;;
58643;SDS011;44411;49.994;8.660;2022-12-19T10:48:02;81.28;;;39.00;;
58643;SDS011;44411;49.994;8.660;2022-12-19T10:50:29;82.93;;;37.95;;
58643;SDS011;44411;49.994;8.660;2022-12-19T11:01:00;83.20;;;39.28;;
58643;SDS011;44411;49.994;8.660;2022-12-19T11:03:35;77.53;;;38.03;;
58643;SDS011;44411;49.994;8.660;2022-12-19T11:06:02;88.32;;;40.15;;
58643;SDS011;44411;49.994;8.660;2022-12-19T11:08:29;87.40;;;39.35;;
58643;SDS011;44411;49.994;8.660;2022-12-19T11:11:08;84.47;;;38.45;;
58643;SDS011;44411;49.994;8.660;2022-12-19T11:16:02;87.70;;;42.33;;
58643;SDS011;44411;49.994;8.660;2022-12-19T11:18:44;93.38;;;42.88;;
58643;SDS011;44411;49.994;8.660;2022-12-19T11:21:29;95.82;;;42.90;;
58643;SDS011;44411;49.994;8.660;2022-12-19T11:26:39;91.93;;;41.85;;
58643;SDS011;44411;49.994;8.660;2022-12-19T11:29:17;87.18;;;41.05;;
58643;SDS011;44411;49.994;8.660;2022-12-19T11:31:45;85.35;;;39.78;;
58643;SDS011;44411;49.994;8.660;2022-12-19T11:34:16;89.65;;;40.33;;
58643;SDS011;44411;49.994;8.660;2022-12-19T11:39:11;90.57;;;40.10;;
58643;SDS011;44411;49.994;8.660;2022-12-19T11:44:57;89.63;;;40.65;;
58643;SDS011;44411;49.994;8.660;2022-12-19T11:47:39;90.90;;;42.53;;
58643;SDS011;44411;49.994;8.660;2022-12-19T11:50:31;95.75;;;44.00;;
58643;SDS011;44411;49.994;8.660;2022-12-19T11:56:13;91.13;;;41.60;;
58643;SDS011;44411;49.994;8.660;2022-12-19T12:07:04;95.00;;;41.70;;
58643;SDS011;44411;49.994;8.660;2022-12-19T12:14:46;96.32;;;40.80;;
58643;SDS011;44411;49.994;8.660;2022-12-19T12:20:26;86.28;;;39.88;;
58643;SDS011;44411;49.994;8.660;2022-12-19T12:28:14;87.30;;;39.70;;
58643;SDS011;44411;49.994;8.660;2022-12-19T12:36:02;82.55;;;40.95;;
58643;SDS011;44411;49.994;8.660;2022-12-19T12:41:05;88.93;;;40.40;;
58643;SDS011;44411;49.994;8.660;2022-12-19T12:44:08;83.65;;;39.08;;
58643;SDS011;44411;49.994;8.660;2022-12-19T12:46:42;90.05;;;41.50;;
58643;SDS011;44411;49.994;8.660;2022-12-19T12:51:52;90.90;;;41.67;;
58643;SDS011;44411;49.994;8.660;2022-12-19T12:54:18;80.60;;;40.25;;
58643;SDS011;44411;49.994;8.660;2022-12-19T12:56:45;85.47;;;39.83;;
58643;SDS011;44411;49.994;8.660;2022-12-19T12:59:23;78.18;;;38.15;;
58643;SDS011;44411;49.994;8.660;2022-12-19T13:01:56;71.63;;;36.78;;
58643;SDS011;44411;49.994;8.660;2022-12-19T13:04:29;74.78;;;37.95;;
58643;SDS011;44411;49.994;8.660;2022-12-19T13:07:02;77.53;;;37.83;;
58643;SDS011;44411;49.994;8.660;2022-12-19T13:09:36;73.38;;;39.05;;
58643;SDS011;44411;49.994;8.660;2022-12-19T13:12:11;88.18;;;40.38;;
58643;SDS011;44411;49.994;8.660;2022-12-19T13:15:15;88.18;;;42.15;;
58643;SDS011;44411;49.994;8.660;2022-12-19T13:22:45;88.07;;;41.10;;
58643;SDS011;44411;49.994;8.660;2022-12-19T13:30:27;80.55;;;38.72;;
58643;SDS011;44411;49.994;8.660;2022-12-19T13:37:50;83.25;;;39.38;;
58643;SDS011;44411;49.994;8.660;2022-12-19T13:43:14;77.00;;;39.88;;
58643;SDS011;44411;49.994;8.660;2022-12-19T13:46:25;85.82;;;40.45;;
58643;SDS011;44411;49.994;8.660;2022-12-19T13:49:04;84.72;;;40.88;;
58643;SDS011;44411;49.994;8.660;2022-12-19T13:51:39;85.60;;;40.90;;
58643;SDS011;44411;49.994;8.660;2022-12-19T13:54:16;82.35;;;38.65;;
58643;SDS011;44411;49.994;8.660;2022-12-19T13:56:43;83.07;;;41.55;;
58643;SDS011;44411;49.994;8.660;2022-12-19T13:59:09;88.85;;;42.67;;
58643;SDS011;44411;49.994;8.660;2022-12-19T14:01:34;94.93;;;42.35;;
58643;SDS011;44411;49.994;8.660;2022-12-19T14:04:11;89.05;;;44.50;;
58643;SDS011;44411;49.994;8.660;2022-12-19T14:06:50;96.43;;;48.13;;
58643;SDS011;44411;49.994;8.660;2022-12-19T14:12:00;102.60;;;48.97;;
58643;SDS011;44411;49.994;8.660;2022-12-19T14:14:28;104.38;;;49.00;;
58643;SDS011;44411;49.994;8.660;2022-12-19T14:17:13;104.18;;;47.88;;
58643;SDS011;44411;49.994;8.660;2022-12-19T14:19:48;94.68;;;47.60;;
58643;SDS011;44411;49.994;8.660;2022-12-19T14:24:40;91.53;;;47.35;;
58643;SDS011;44411;49.994;8.660;2022-12-19T14:27:21;91.35;;;46.28;;
58643;SDS011;44411;49.994;8.660;2022-12-19T14:29:57;87.38;;;44.30;;
58643;SDS011;44411;49.994;8.660;2022-12-19T14:32:27;96.22;;;51.05;;
58643;SDS011;44411;49.994;8.660;2022-12-19T14:34:52;103.22;;;53.45;;
58643;SDS011;44411;49.994;8.660;2022-12-19T14:37:31;88.47;;;45.35;;
58643;SDS011;44411;49.994;8.660;2022-12-19T14:43:05;81.10;;;41.15;;
58643;SDS011;44411;49.994;8.660;2022-12-19T14:46:35;73.72;;;40.22;;
58643;SDS011;44411;49.994;8.660;2022-12-19T14:48:55;84.05;;;41.70;;
58643;SDS011;44411;49.994;8.660;2022-12-19T14:51:36;76.25;;;40.20;;
58643;SDS011;44411;49.994;8.660;2022-12-19T14:56:43;83.93;;;42.92;;
58643;SDS011;44411;49.994;8.660;2022-12-19T15:02:11;88.05;;;41.88;;
58643;SDS011;44411;49.994;8.660;2022-12-19T15:05:05;86.95;;;42.78;;
58643;SDS011;44411;49.994;8.660;2022-12-19T15:07:32;93.43;;;44.83;;
58643;SDS011;44411;49.994;8.660;2022-12-19T15:12:32;92.95;;;46.60;;
58643;SDS011;44411;49.994;8.660;2022-12-19T15:21:08;102.97;;;45.55;;
58643;SDS011;44411;49.994;8.660;2022-12-19T15:23:36;94.35;;;46.10;;
58643;SDS011;44411;49.994;8.660;2022-12-19T15:26:02;106.78;;;47.83;;
58643;SDS011;44411;49.994;8.660;2022-12-19T15:28:40;103.38;;;46.58;;
58643;SDS011;44411;49.994;8.660;2022-12-19T15:31:24;106.85;;;48.00;;
58643;SDS011;44411;49.994;8.660;2022-12-19T15:33:51;108.40;;;48.38;;
58643;SDS011;44411;49.994;8.660;2022-12-19T15:36:19;105.28;;;48.83;;
58643;SDS011;44411;49.994;8.660;2022-12-19T15:38:45;97.43;;;45.90;;
58643;SDS011;44411;49.994;8.660;2022-12-19T15:41:15;109.85;;;49.05;;
58643;SDS011;44411;49.994;8.660;2022-12-19T15:43:43;102.57;;;48.05;;
58643;SDS011;44411;49.994;8.660;2022-12-19T15:46:08;110.75;;;49.45;;
58643;SDS011;44411;49.994;8.660;2022-12-19T15:48:40;111.32;;;48.25;;
58643;SDS011;44411;49.994;8.660;2022-12-19T15:51:12;105.50;;;49.88;;
58643;SDS011;44411;49.994;8.660;2022-12-19T15:53:38;115.25;;;47.67;;
58643;SDS011;44411;49.994;8.660;2022-12-19T15:56:19;111.55;;;48.10;;
58643;SDS011;44411;49.994;8.660;2022-12-19T15:58:49;104.65;;;47.47;;
58643;SDS011;44411;49.994;8.660;2022-12-19T16:01:16;114.63;;;49.80;;
58643;SDS011;44411;49.994;8.660;2022-12-19T16:03:41;101.78;;;45.70;;
58643;SDS011;44411;49.994;8.660;2022-12-19T16:06:11;106.22;;;46.28;;
58643;SDS011;44411;49.994;8.660;2022-12-19T16:08:38;109.30;;;49.20;;
58643;SDS011;44411;49.994;8.660;2022-12-19T16:11:03;116.47;;;48.40;;
58643;SDS011;44411;49.994;8.660;2022-12-19T16:13:29;108.72;;;48.45;;
58643;SDS011;44411;49.994;8.660;2022-12-19T16:15:57;102.80;;;46.75;;
58643;SDS011;44411;49.994;8.660;2022-12-19T16:18:22;97.38;;;44.60;;
58643;SDS011;44411;49.994;8.660;2022-12-19T16:20:48;110.35;;;49.45;;
58643;SDS011;44411;49.994;8.660;2022-12-19T16:23:14;123.53;;;53.72;;
58643;SDS011;44411;49.994;8.660;2022-12-19T16:25:44;116.70;;;50.75;;
58643;SDS011;44411;49.994;8.660;2022-12-19T16:28:14;116.65;;;49.70;;
58643;SDS011;44411;49.994;8.660;2022-12-19T16:30:47;116.22;;;51.70;;
58643;SDS011;44411;49.994;8.660;2022-12-19T16:33:16;116.35;;;52.15;;
58643;SDS011;44411;49.994;8.660;2022-12-19T16:35:43;122.38;;;51.30;;
58643;SDS011;44411;49.994;8.660;2022-12-19T16:38:09;118.82;;;53.47;;
58643;SDS011;44411;49.994;8.660;2022-12-19T16:40:35;110.00;;;50.00;;
58643;SDS011;44411;49.994;8.660;2022-12-19T16:43:03;122.35;;;51.45;;
58643;SDS011;44411;49.994;8.660;2022-12-19T16:45:34;110.93;;;50.75;;
58643;SDS011;44411;49.994;8.660;2022-12-19T16:48:02;118.60;;;51.60;;
58643;SDS011;44411;49.994;8.660;2022-12-19T16:50:28;122.72;;;52.13;;
58643;SDS011;44411;49.994;8.660;2022-12-19T16:52:55;131.27;;;52.95;;
58643;SDS011;44411;49.994;8.660;2022-12-19T16:55:22;127.70;;;57.92;;
58643;SDS011;44411;49.994;8.660;2022-12-19T16:57:50;117.00;;;56.67;;
58643;SDS011;44411;49.994;8.660;2022-12-19T17:00:18;123.25;;;54.97;;
58643;SDS011;44411;49.994;8.660;2022-12-19T17:02:50;126.18;;;53.72;;
58643;SDS011;44411;49.994;8.660;2022-12-19T17:05:22;122.07;;;54.88;;
58643;SDS011;44411;49.994;8.660;2022-12-19T17:07:49;128.20;;;54.45;;
58643;SDS011;44411;49.994;8.660;2022-12-19T17:10:16;120.32;;;54.22;;